首页
METAR-TAF:

METAR-TAF

机场 :

Winslow, 亞利桑那州, 美国

纬度: 35-01-41N, 经度: 110-43-15W, 海拔: 1505米

当前天气观测

该预报发布于1小时和12分钟前的02:56 UTC
风速8节,风向西南
温度 23°C
湿度 16%
气压 1017 hPa
能見度: 16.1公里
天空无云

METAR: KINW 190256Z AUTO 23008KT 10SM CLR 23/M04 A3002 RMK AO2 SLP094 T02281039 53011 $

时间: 21:08 (04:08 UTC)

预报

该预报发布于4小时和37分钟前的23:31 UTC
预报有效从19日的 00点(UTC)到 19日的 24点(UTC)
风速16节,风向西转西南,有时为26节阵风
能見度: 10公里
少量云层高于25000英尺
从 19日的 0300点(UTC)
风速14节,风向西南
能見度: 10公里
天空无云
从 19日的 0600点(UTC)
风速7节,风向西南
能見度: 10公里
天空无云
从 19日的 1700点(UTC)
风速13节,风向西南,有时为22节阵风
能見度: 10公里
天空无云
从 19日的 1900点(UTC)
风速18节,风向西南,有时为26节阵风
能見度: 10公里
天空无云

TAF: KINW 182331Z 1900/1924 24016G26KT P6SM FEW250 FM190300 22014KT P6SM SKC FM190600 22007KT P6SM SKC FM191700 22013G22KT P6SM SKC FM191900 22018G26KT P6SM SKC

超过4000个机场的气象观测和天气预报(METAR&TAF报告)。

可查询的气象台以黄色和红色小点在地图上表示。

将鼠标移到小点上方,可查看气象台名称。

然后点击查看天气观测和预报。

如需切换地图:点击带黑十字的绿色按钮放大地图;点击带横线的绿色按钮缩小地图;或者点击绿色箭头查看邻近地区的地图。


METAR-TAF: